Time;durP1;ratioP1;P1;durP2;ratioP2;P2;SDS_P1;SDS_P2;PMS_P1;PMS_P2;Temp;Humidity;BMP_temperature;BMP_pressure;BME280_temperature;BME280_humidity;BME280_pressure;Samples;Min_cycle;Max_cycle;Signal;HPM_P1;HPM_P2
2021/06/19 00:00:29;;;;;;;0.40;0.30;;;22.10;99.90;;;;;;4972305;28;20954;-75
2021/06/19 00:02:54;;;;;;;0.40;0.30;;;22.10;99.90;;;;;;4970474;28;20472;-75
2021/06/19 00:05:20;;;;;;;0.40;0.30;;;22.10;99.90;;;;;;4970742;28;20915;-76
2021/06/19 00:07:46;;;;;;;0.40;0.20;;;22.10;99.90;;;;;;4970741;28;20475;-75
2021/06/19 00:10:13;;;;;;;0.40;0.30;;;22.10;99.90;;;;;;4970576;28;20460;-75
2021/06/19 00:12:39;;;;;;;0.40;0.30;;;22.10;99.90;;;;;;4971919;28;20674;-75
2021/06/19 00:15:08;;;;;;;0.40;0.30;;;22.10;99.90;;;;;;4973604;28;20450;-74
2021/06/19 00:17:34;;;;;;;0.40;0.30;;;22.00;99.90;;;;;;4973385;28;20392;-74
2021/06/19 00:20:00;;;;;;;0.40;0.20;;;22.10;99.90;;;;;;4973902;28;20709;-75
2021/06/19 00:22:25;;;;;;;0.40;0.30;;;22.10;99.90;;;;;;4973387;28;20380;-75
2021/06/19 00:24:51;;;;;;;0.40;0.20;;;22.10;99.90;;;;;;4973529;28;20450;-74
2021/06/19 00:27:17;;;;;;;0.40;0.30;;;22.10;99.90;;;;;;4973606;28;20419;-74
2021/06/19 00:29:42;;;;;;;0.40;0.20;;;22.00;99.90;;;;;;4973256;28;20479;-74
2021/06/19 00:32:08;;;;;;;0.40;0.20;;;22.00;99.90;;;;;;4973802;28;20384;-74
2021/06/19 00:34:34;;;;;;;0.40;0.20;;;22.10;99.90;;;;;;4972825;28;20491;-74
2021/06/19 00:36:59;;;;;;;0.40;0.20;;;22.10;99.90;;;;;;4973753;28;20468;-74
2021/06/19 00:39:25;;;;;;;0.60;0.50;;;22.10;99.90;;;;;;4973029;28;20385;-75
2021/06/19 00:41:50;;;;;;;0.40;0.30;;;22.10;99.90;;;;;;4973034;28;20849;-74
2021/06/19 00:44:19;;;;;;;0.40;0.20;;;22.00;99.90;;;;;;4973699;28;20419;-74
2021/06/19 00:46:49;;;;;;;0.40;0.20;;;21.90;99.90;;;;;;4972793;28;20416;-74
2021/06/19 00:49:15;;;;;;;0.40;0.20;;;22.00;99.90;;;;;;4973661;28;20380;-74
2021/06/19 00:51:41;;;;;;;0.40;0.20;;;21.90;99.90;;;;;;4972746;28;20878;-74
2021/06/19 00:54:07;;;;;;;0.40;0.30;;;21.80;99.90;;;;;;4973417;28;20384;-75
2021/06/19 00:56:36;;;;;;;0.40;0.30;;;21.70;99.90;;;;;;4972463;28;20384;-74
2021/06/19 00:59:02;;;;;;;0.40;0.30;;;21.70;99.90;;;;;;4973217;28;20485;-74
2021/06/19 01:01:28;;;;;;;0.40;0.30;;;21.60;99.90;;;;;;4972227;28;20385;-74
2021/06/19 01:03:54;;;;;;;0.40;0.30;;;21.60;99.90;;;;;;4973065;28;20789;-75
2021/06/19 01:06:19;;;;;;;0.40;0.30;;;21.60;99.90;;;;;;4972961;28;20393;-74
2021/06/19 01:08:45;;;;;;;0.40;0.30;;;21.60;99.90;;;;;;4972188;28;20416;-74
2021/06/19 01:11:11;;;;;;;0.40;0.30;;;21.50;99.90;;;;;;4974993;28;20475;-74
2021/06/19 01:13:36;;;;;;;0.40;0.20;;;21.60;99.90;;;;;;4991699;28;20418;-74
2021/06/19 01:16:02;;;;;;;0.40;0.20;;;21.70;99.90;;;;;;4992423;28;20391;-74
2021/06/19 01:18:28;;;;;;;0.40;0.20;;;21.60;99.90;;;;;;4991647;28;20401;-74
2021/06/19 01:20:53;;;;;;;0.40;0.30;;;21.50;99.90;;;;;;4992243;28;20847;-74
2021/06/19 01:23:19;;;;;;;0.40;0.30;;;21.50;99.90;;;;;;4992212;28;20394;-74
2021/06/19 01:25:45;;;;;;;0.40;0.30;;;21.60;99.90;;;;;;4991150;28;20461;-75
2021/06/19 01:28:11;;;;;;;0.40;0.30;;;21.50;99.90;;;;;;4991785;28;20418;-74
2021/06/19 01:30:38;;;;;;;0.40;0.30;;;21.50;99.90;;;;;;4991399;28;20417;-74
2021/06/19 01:33:06;;;;;;;0.40;0.30;;;21.50;99.90;;;;;;4990849;28;20433;-74
2021/06/19 01:35:31;;;;;;;0.40;0.30;;;21.40;99.90;;;;;;4991055;28;20967;-74
2021/06/19 01:37:58;;;;;;;0.40;0.30;;;21.50;99.90;;;;;;4992195;28;20493;-74
2021/06/19 01:40:33;;;;;;;0.40;0.20;;;21.40;99.90;;;;;;4991863;28;20426;-74
2021/06/19 01:42:59;;;;;;;0.40;0.30;;;21.30;99.90;;;;;;4991946;28;20398;-74
2021/06/19 01:45:29;;;;;;;0.40;0.30;;;21.30;99.90;;;;;;4991227;28;20387;-76
2021/06/19 01:47:58;;;;;;;0.40;0.30;;;21.20;99.90;;;;;;4991443;28;20774;-74
2021/06/19 01:50:28;;;;;;;0.40;0.30;;;21.20;99.90;;;;;;4991958;28;20720;-74
2021/06/19 01:52:54;;;;;;;0.40;0.30;;;21.20;99.90;;;;;;4990880;28;20374;-75
2021/06/19 01:55:20;;;;;;;0.40;0.30;;;21.10;99.90;;;;;;4991578;28;20478;-74
2021/06/19 01:57:49;;;;;;;0.40;0.30;;;21.10;99.90;;;;;;4990813;28;20402;-74
2021/06/19 02:00:21;;;;;;;0.40;0.30;;;21.10;99.90;;;;;;4991333;28;20882;-74
2021/06/19 02:02:47;;;;;;;0.40;0.20;;;21.20;99.90;;;;;;4991104;28;20387;-74
2021/06/19 02:05:14;;;;;;;0.40;0.30;;;21.10;99.90;;;;;;4991453;28;20468;-74
2021/06/19 02:08:04;;;;;;;0.40;0.20;;;21.10;99.90;;;;;;4990732;28;20501;-74
2021/06/19 02:10:39;;;;;;;0.40;0.30;;;21.00;99.90;;;;;;4990710;28;20379;-76
2021/06/19 02:13:06;;;;;;;0.40;0.30;;;21.10;99.90;;;;;;4974040;28;20415;-74
2021/06/19 02:15:33;;;;;;;0.40;0.20;;;21.00;99.90;;;;;;4971608;28;20403;-74
2021/06/19 02:17:59;;;;;;;1.90;0.70;;;21.10;99.90;;;;;;4971902;28;20400;-74
2021/06/19 02:20:25;;;;;;;0.40;0.20;;;21.10;99.90;;;;;;4971883;28;20385;-74
2021/06/19 02:22:52;;;;;;;0.40;0.30;;;21.00;99.90;;;;;;4971051;28;20872;-74
2021/06/19 02:25:20;;;;;;;0.40;0.30;;;20.90;99.90;;;;;;4972054;28;20467;-74
2021/06/19 02:27:48;;;;;;;0.40;0.20;;;20.90;99.90;;;;;;4971202;28;20424;-74
2021/06/19 02:30:15;;;;;;;0.40;0.30;;;20.90;99.90;;;;;;4971789;28;20394;-74
2021/06/19 02:32:41;;;;;;;0.40;0.22;;;20.80;99.90;;;;;;4970975;28;20463;-74
2021/06/19 02:35:07;;;;;;;0.40;0.25;;;20.80;99.90;;;;;;4971930;28;20419;-74
2021/06/19 02:37:33;;;;;;;0.40;0.20;;;20.80;99.90;;;;;;4970859;28;20426;-75
2021/06/19 02:39:58;;;;;;;0.40;0.20;;;20.90;99.90;;;;;;4971566;28;20838;-74
2021/06/19 02:42:24;;;;;;;0.40;0.20;;;20.80;99.90;;;;;;4971481;28;20869;-74
2021/06/19 02:44:49;;;;;;;0.40;0.20;;;20.90;99.90;;;;;;4970763;28;20411;-75
2021/06/19 02:47:15;;;;;;;0.40;0.30;;;20.90;99.90;;;;;;4971619;28;20452;-74
2021/06/19 02:49:41;;;;;;;0.40;0.20;;;20.90;99.90;;;;;;4953964;28;20801;-75
2021/06/19 02:52:08;;;;;;;0.40;0.30;;;20.80;99.90;;;;;;4971748;28;20381;-74
2021/06/19 02:54:34;;;;;;;0.40;0.20;;;20.80;99.90;;;;;;4971170;28;20407;-75
2021/06/19 02:57:00;;;;;;;0.40;0.30;;;20.80;99.90;;;;;;4971592;28;20396;-74
2021/06/19 02:59:25;;;;;;;0.40;0.30;;;20.80;99.90;;;;;;4971744;28;20388;-75
2021/06/19 03:01:51;;;;;;;0.40;0.30;;;20.70;99.90;;;;;;4985552;28;20400;-74
2021/06/19 03:04:16;;;;;;;0.40;0.30;;;20.80;99.90;;;;;;4972603;28;20419;-75
2021/06/19 03:06:42;;;;;;;0.40;0.30;;;20.80;99.90;;;;;;4957313;28;20393;-74
2021/06/19 03:09:09;;;;;;;0.40;0.30;;;20.80;99.90;;;;;;4975228;28;20919;-75
2021/06/19 03:11:35;;;;;;;0.40;0.30;;;20.80;99.90;;;;;;4979829;28;20398;-75
2021/06/19 03:14:00;;;;;;;0.40;0.30;;;20.70;99.90;;;;;;4994463;28;20418;-74
2021/06/19 03:16:26;;;;;;;0.40;0.20;;;20.70;99.90;;;;;;4994464;28;20830;-75
2021/06/19 03:18:52;;;;;;;0.40;0.20;;;20.70;99.90;;;;;;4993321;28;20524;-74
2021/06/19 03:21:18;;;;;;;0.40;0.30;;;20.60;99.90;;;;;;4994740;28;20433;-75
2021/06/19 03:23:43;;;;;;;0.40;0.30;;;20.50;99.90;;;;;;4993939;28;20378;-75
2021/06/19 03:26:09;;;;;;;0.40;0.20;;;20.60;99.90;;;;;;4977161;28;20398;-75
2021/06/19 03:28:35;;;;;;;0.40;0.20;;;20.50;99.90;;;;;;4993459;28;20509;-75
2021/06/19 03:31:00;;;;;;;0.40;0.20;;;20.60;99.90;;;;;;4994520;28;20387;-75
2021/06/19 03:33:26;;;;;;;0.40;0.30;;;20.60;99.90;;;;;;4994316;28;20379;-75
2021/06/19 03:35:51;;;;;;;0.40;0.30;;;20.50;99.90;;;;;;4993410;28;20398;-75
2021/06/19 03:38:17;;;;;;;0.40;0.30;;;20.40;99.90;;;;;;4994211;28;20401;-75
2021/06/19 03:40:43;;;;;;;0.40;0.20;;;20.40;99.90;;;;;;4993711;28;20391;-75
2021/06/19 03:43:08;;;;;;;0.40;0.20;;;20.40;99.90;;;;;;4993929;28;20402;-75
2021/06/19 03:45:36;;;;;;;0.40;0.30;;;20.40;99.90;;;;;;4993543;28;20401;-75
2021/06/19 03:48:05;;;;;;;0.40;0.20;;;20.30;99.90;;;;;;4994160;28;20430;-75
2021/06/19 03:50:31;;;;;;;0.40;0.30;;;20.40;99.90;;;;;;4994417;28;20505;-75
2021/06/19 03:52:58;;;;;;;0.40;0.20;;;20.40;99.90;;;;;;4993694;28;20429;-75
2021/06/19 03:55:26;;;;;;;0.40;0.20;;;20.40;99.90;;;;;;4994091;28;20389;-75
2021/06/19 03:57:53;;;;;;;0.40;0.20;;;20.50;99.90;;;;;;4993366;28;20449;-75
2021/06/19 04:00:20;;;;;;;0.40;0.30;;;20.50;99.90;;;;;;4993837;28;20390;-75
2021/06/19 04:02:46;;;;;;;0.50;0.50;;;20.60;99.90;;;;;;4993774;28;20738;-75
2021/06/19 04:05:13;;;;;;;0.40;0.20;;;20.60;99.90;;;;;;4994281;28;20383;-75
2021/06/19 04:07:40;;;;;;;0.40;0.20;;;20.60;99.90;;;;;;4976117;28;20799;-75
2021/06/19 04:10:08;;;;;;;0.40;0.30;;;20.60;99.90;;;;;;4994209;28;20456;-75
2021/06/19 04:12:34;;;;;;;0.40;0.30;;;20.60;99.90;;;;;;4980000;28;20396;-77
2021/06/19 04:15:00;;;;;;;0.40;0.20;;;20.60;99.90;;;;;;4973835;28;20420;-75
2021/06/19 04:17:26;;;;;;;0.40;0.20;;;20.60;99.90;;;;;;4973709;28;20872;-75
2021/06/19 04:19:52;;;;;;;0.40;0.20;;;20.60;99.90;;;;;;4974262;28;20459;-75
2021/06/19 04:22:17;;;;;;;0.40;0.20;;;20.60;99.90;;;;;;4974418;28;20483;-75
2021/06/19 04:24:43;;;;;;;0.40;0.30;;;20.80;99.90;;;;;;4974036;28;20450;-75
2021/06/19 04:27:15;;;;;;;0.40;0.20;;;20.70;99.90;;;;;;4974388;28;20729;-75
2021/06/19 04:29:41;;;;;;;0.40;0.20;;;20.70;99.90;;;;;;4973899;28;20396;-75
2021/06/19 04:32:07;;;;;;;0.40;0.20;;;20.70;99.90;;;;;;4974350;28;20468;-75
2021/06/19 04:34:33;;;;;;;0.40;0.20;;;20.80;99.90;;;;;;4974067;28;20392;-75
2021/06/19 04:36:59;;;;;;;0.40;0.20;;;20.80;99.90;;;;;;4973461;28;20419;-75
2021/06/19 04:39:24;;;;;;;0.40;0.20;;;20.80;99.90;;;;;;4974225;28;20389;-75
2021/06/19 04:42:02;;;;;;;0.40;0.30;;;20.90;99.90;;;;;;4973871;28;20391;-75
2021/06/19 04:44:41;;;;;;;0.40;0.20;;;20.90;99.90;;;;;;4989015;28;20477;-74
2021/06/19 04:47:09;;;;;;;0.40;0.20;;;20.90;99.90;;;;;;4974160;28;20428;-75
2021/06/19 04:49:34;;;;;;;0.40;0.20;;;20.90;99.90;;;;;;4973958;28;20382;-74
2021/06/19 04:52:00;;;;;;;0.40;0.20;;;20.90;99.90;;;;;;4973800;28;20392;-75
2021/06/19 04:54:26;;;;;;;0.40;0.20;;;21.00;99.90;;;;;;4973899;28;20387;-74
2021/06/19 04:56:51;;;;;;;0.40;0.20;;;20.80;99.90;;;;;;4973124;28;20884;-75
2021/06/19 04:59:17;;;;;;;0.40;0.20;;;20.90;99.90;;;;;;4973608;28;20869;-75
2021/06/19 05:01:43;;;;;;;0.40;0.20;;;20.90;99.90;;;;;;4973227;28;20785;-75
2021/06/19 05:04:08;;;;;;;0.40;0.20;;;21.00;99.90;;;;;;4973851;28;20947;-74
2021/06/19 05:06:35;;;;;;;0.40;0.20;;;21.00;99.90;;;;;;4973630;28;20384;-74
2021/06/19 05:09:03;;;;;;;0.40;0.20;;;21.00;99.90;;;;;;4973013;28;20491;-74
2021/06/19 05:11:28;;;;;;;0.40;0.30;;;21.20;99.90;;;;;;4978013;28;20440;-74
2021/06/19 05:13:54;;;;;;;0.40;0.30;;;21.30;99.90;;;;;;4991372;28;20422;-74
2021/06/19 05:16:19;;;;;;;0.40;0.30;;;21.30;99.90;;;;;;4992695;28;20477;-75
2021/06/19 05:18:45;;;;;;;0.40;0.30;;;21.40;99.90;;;;;;4992328;28;20855;-75
2021/06/19 05:21:11;;;;;;;0.40;0.30;;;21.40;99.90;;;;;;4993279;28;20861;-75
2021/06/19 05:23:36;;;;;;;0.40;0.30;;;21.30;99.90;;;;;;4992862;28;20866;-75
2021/06/19 05:26:02;;;;;;;0.40;0.30;;;21.50;99.90;;;;;;4992282;28;20731;-75
2021/06/19 05:28:28;;;;;;;0.40;0.30;;;21.60;99.90;;;;;;4992058;28;20423;-75
2021/06/19 05:30:53;;;;;;;0.40;0.20;;;21.60;99.90;;;;;;4991794;28;20388;-75
2021/06/19 05:33:19;;;;;;;0.40;0.30;;;21.70;99.90;;;;;;4992842;28;20389;-75
2021/06/19 05:35:45;;;;;;;0.40;0.20;;;21.60;99.90;;;;;;4991996;28;20382;-75
2021/06/19 05:38:11;;;;;;;0.40;0.40;;;21.70;99.90;;;;;;4992580;28;20474;-75
2021/06/19 05:40:36;;;;;;;0.40;0.20;;;21.70;99.90;;;;;;4992546;28;20414;-75
2021/06/19 05:43:02;;;;;;;0.40;0.30;;;21.70;99.90;;;;;;4974288;28;20414;-75
2021/06/19 05:45:28;;;;;;;0.40;0.20;;;21.80;99.90;;;;;;4992472;28;20397;-75
2021/06/19 05:47:53;;;;;;;0.40;0.20;;;21.80;99.90;;;;;;4991675;28;20414;-75
2021/06/19 05:50:19;;;;;;;0.40;0.30;;;21.90;99.90;;;;;;4992383;28;20440;-75
2021/06/19 05:52:45;;;;;;;0.40;0.20;;;21.90;99.90;;;;;;4974309;28;20466;-75
2021/06/19 05:55:11;;;;;;;0.40;0.30;;;21.90;99.90;;;;;;4992206;28;20426;-75
2021/06/19 05:57:37;;;;;;;0.40;0.20;;;21.90;99.90;;;;;;4992268;28;20477;-75
2021/06/19 06:00:07;;;;;;;0.40;0.30;;;21.90;99.90;;;;;;4991575;28;20390;-75
2021/06/19 06:02:33;;;;;;;0.40;0.20;;;21.90;99.90;;;;;;4992236;28;20452;-75
2021/06/19 06:04:59;;;;;;;0.40;0.30;;;22.00;99.90;;;;;;4991709;28;20457;-75
2021/06/19 06:07:24;;;;;;;0.50;0.40;;;22.10;99.90;;;;;;4991987;28;20476;-75
2021/06/19 06:09:50;;;;;;;0.40;0.20;;;22.20;99.90;;;;;;4991155;28;20379;-75
2021/06/19 06:12:16;;;;;;;0.40;0.20;;;22.20;99.90;;;;;;4981235;28;20759;-75
2021/06/19 06:14:42;;;;;;;0.40;0.30;;;22.20;99.90;;;;;;4971574;28;20510;-76
2021/06/19 06:17:07;;;;;;;0.50;0.30;;;22.30;99.90;;;;;;4972592;28;20419;-75
2021/06/19 06:19:33;;;;;;;0.40;0.30;;;22.40;99.90;;;;;;4972529;28;20713;-75
2021/06/19 06:21:59;;;;;;;0.40;0.20;;;22.50;99.90;;;;;;4971889;28;20395;-75
2021/06/19 06:24:25;;;;;;;0.40;0.30;;;22.50;99.90;;;;;;4972403;28;20389;-75
2021/06/19 06:26:50;;;;;;;0.40;0.30;;;22.50;99.90;;;;;;4971551;28;20388;-75
2021/06/19 06:29:16;;;;;;;0.40;0.30;;;22.70;99.90;;;;;;4972455;28;20795;-75
2021/06/19 06:31:42;;;;;;;0.40;0.20;;;22.70;99.90;;;;;;4972221;28;20384;-77
2021/06/19 06:34:08;;;;;;;0.40;0.30;;;22.80;99.90;;;;;;4972049;28;20804;-75
2021/06/19 06:36:33;;;;;;;0.40;0.20;;;22.90;99.90;;;;;;4954918;28;20400;-75
2021/06/19 06:39:03;;;;;;;0.40;0.30;;;22.90;99.90;;;;;;4972358;28;20388;-75
2021/06/19 06:41:28;;;;;;;0.40;0.30;;;22.90;99.90;;;;;;4976390;28;20427;-75
2021/06/19 06:43:54;;;;;;;0.40;0.20;;;22.90;99.90;;;;;;4975236;28;20450;-75
2021/06/19 06:46:20;;;;;;;0.40;0.30;;;23.00;99.90;;;;;;4976610;28;20392;-75
2021/06/19 06:48:45;;;;;;;0.40;0.30;;;23.00;99.90;;;;;;4975574;28;20423;-76
2021/06/19 06:51:11;;;;;;;0.40;0.20;;;23.00;99.90;;;;;;4976243;28;20394;-75
2021/06/19 06:53:37;;;;;;;0.40;0.30;;;23.10;99.90;;;;;;4976143;28;20804;-76
2021/06/19 06:56:03;;;;;;;0.40;0.30;;;23.00;99.90;;;;;;4975549;28;20659;-75
2021/06/19 06:58:28;;;;;;;0.40;0.20;;;23.30;99.90;;;;;;4976127;28;20390;-75
2021/06/19 07:00:54;;;;;;;0.40;0.30;;;23.30;99.90;;;;;;4975048;28;20744;-75
2021/06/19 07:03:20;;;;;;;0.40;0.30;;;23.30;99.90;;;;;;4975611;28;20384;-75
2021/06/19 07:05:45;;;;;;;0.40;0.20;;;23.50;99.90;;;;;;4975302;28;20451;-74
2021/06/19 07:08:11;;;;;;;0.40;0.30;;;23.90;99.90;;;;;;4975588;28;20423;-74
2021/06/19 07:10:37;;;;;;;0.40;0.20;;;24.00;99.90;;;;;;4976011;28;20380;-74
2021/06/19 07:13:02;;;;;;;0.40;0.20;;;24.10;99.90;;;;;;4992231;28;20398;-74
2021/06/19 07:15:28;;;;;;;0.60;0.60;;;24.00;99.90;;;;;;4995459;28;20418;-74
2021/06/19 07:17:54;;;;;;;0.40;0.20;;;24.00;99.90;;;;;;4994398;28;20901;-75
2021/06/19 07:20:20;;;;;;;0.40;0.30;;;24.00;99.90;;;;;;4995057;28;20469;-74
2021/06/19 07:22:46;;;;;;;0.40;0.20;;;24.20;99.90;;;;;;4994500;28;20394;-78
2021/06/19 07:25:13;;;;;;;0.40;0.30;;;24.40;99.90;;;;;;4994975;28;20477;-75
2021/06/19 07:27:39;;;;;;;0.40;0.20;;;24.40;99.90;;;;;;4994938;28;20807;-75
2021/06/19 07:30:07;;;;;;;0.40;0.20;;;24.50;99.90;;;;;;4994319;28;20391;-75
2021/06/19 07:32:33;;;;;;;0.50;0.40;;;24.50;99.90;;;;;;4995118;28;20924;-75
2021/06/19 07:34:58;;;;;;;0.40;0.30;;;24.50;99.90;;;;;;4993688;28;20870;-76
2021/06/19 07:37:24;;;;;;;0.40;0.30;;;24.50;99.90;;;;;;4994794;28;20401;-75
2021/06/19 07:39:53;;;;;;;0.40;0.20;;;24.60;99.90;;;;;;4993935;28;20481;-76
2021/06/19 07:42:22;;;;;;;0.40;0.30;;;24.90;99.90;;;;;;4994701;28;20394;-74
2021/06/19 07:44:48;;;;;;;0.40;0.30;;;25.00;99.90;;;;;;4994055;28;20881;-76
2021/06/19 07:47:14;;;;;;;0.40;0.20;;;25.00;99.90;;;;;;4994744;28;20418;-75
2021/06/19 07:49:40;;;;;;;0.40;0.30;;;25.00;99.90;;;;;;4994448;28;20383;-75
2021/06/19 07:52:06;;;;;;;0.50;0.30;;;25.00;99.90;;;;;;4993689;28;20383;-75
2021/06/19 07:54:36;;;;;;;0.40;0.30;;;25.20;99.90;;;;;;4994391;28;20895;-75
2021/06/19 07:57:06;;;;;;;0.50;0.30;;;25.20;99.90;;;;;;4993903;28;20382;-75
2021/06/19 07:59:33;;;;;;;0.40;0.20;;;25.10;99.90;;;;;;4993969;28;20430;-75
2021/06/19 08:01:59;;;;;;;0.50;0.40;;;25.20;99.90;;;;;;4993610;28;20386;-74
2021/06/19 08:04:25;;;;;;;0.40;0.20;;;25.30;99.90;;;;;;4994261;28;20393;-76
2021/06/19 08:06:50;;;;;;;0.40;0.20;;;25.40;99.90;;;;;;4993338;28;20899;-75
2021/06/19 08:09:16;;;;;;;0.40;0.20;;;25.40;99.90;;;;;;4994159;28;20379;-74
2021/06/19 08:11:42;;;;;;;0.40;0.20;;;25.40;99.90;;;;;;4987777;28;20397;-73
2021/06/19 08:14:08;;;;;;;0.40;0.20;;;25.50;99.90;;;;;;4973007;28;20772;-76
2021/06/19 08:16:33;;;;;;;0.40;0.30;;;25.80;99.90;;;;;;4972844;28;20388;-76
2021/06/19 08:18:59;;;;;;;0.40;0.20;;;26.10;99.90;;;;;;4956468;28;20403;-75
2021/06/19 08:21:25;;;;;;;0.40;0.20;;;26.00;99.90;;;;;;4974010;28;20388;-74
2021/06/19 08:23:51;;;;;;;0.40;0.20;;;25.90;99.90;;;;;;4974004;28;20389;-75
2021/06/19 08:26:16;;;;;;;0.40;0.30;;;26.20;99.90;;;;;;4974203;28;20435;-76
2021/06/19 08:28:42;;;;;;;0.40;0.30;;;26.30;99.90;;;;;;4974092;28;20428;-76
2021/06/19 08:31:08;;;;;;;0.40;0.20;;;26.30;99.90;;;;;;4973773;28;20384;-75
2021/06/19 08:33:34;;;;;;;0.40;0.20;;;26.30;99.90;;;;;;4974284;28;20396;-75
2021/06/19 08:35:59;;;;;;;0.40;0.30;;;26.40;99.90;;;;;;4973532;28;20919;-75
2021/06/19 08:38:25;;;;;;;0.40;0.30;;;26.50;99.90;;;;;;4974036;28;20428;-75
2021/06/19 08:40:51;;;;;;;0.40;0.20;;;26.50;99.90;;;;;;4973287;28;20381;-77
2021/06/19 08:43:19;;;;;;;0.40;0.30;;;26.50;99.90;;;;;;4974476;28;20415;-75
2021/06/19 08:45:48;;;;;;;0.40;0.30;;;26.60;99.90;;;;;;4974034;28;20388;-75
2021/06/19 08:48:17;;;;;;;0.40;0.25;;;26.50;99.90;;;;;;4973371;28;20412;-75
2021/06/19 08:50:44;;;;;;;0.40;0.30;;;26.50;99.90;;;;;;4973724;28;20380;-75
2021/06/19 08:53:09;;;;;;;0.40;0.20;;;26.30;99.90;;;;;;4973156;28;20479;-75
2021/06/19 08:55:37;;;;;;;0.40;0.20;;;26.40;99.90;;;;;;4973803;28;20480;-75
2021/06/19 08:58:03;;;;;;;0.40;0.30;;;26.50;99.90;;;;;;4955859;28;20805;-75
2021/06/19 09:00:28;;;;;;;0.40;0.20;;;26.50;99.90;;;;;;4973795;28;20425;-75
2021/06/19 09:02:54;;;;;;;0.40;0.22;;;26.70;99.90;;;;;;4972682;28;20427;-75
2021/06/19 09:05:28;;;;;;;0.40;0.30;;;26.30;99.90;;;;;;4973737;28;20793;-75
2021/06/19 09:07:56;;;;;;;0.40;0.20;;;26.70;99.90;;;;;;4973117;28;20482;-76
2021/06/19 09:10:30;;;;;;;0.40;0.22;;;26.70;99.90;;;;;;4973601;28;20465;-73
2021/06/19 09:13:09;;;;;;;0.40;0.20;;;26.80;99.90;;;;;;4972911;28;20494;-73
2021/06/19 09:15:47;;;;;;;0.40;0.28;;;26.80;99.90;;;;;;4973642;28;20416;-75
2021/06/19 09:18:30;;;;;;;0.40;0.20;;;26.80;99.90;;;;;;4972744;28;20812;-76
2021/06/19 09:20:57;;;;;;;0.40;0.20;;;26.90;99.90;;;;;;4972927;28;20388;-74
2021/06/19 09:23:27;;;;;;;0.40;0.20;;;26.90;99.90;;;;;;4973485;28;20404;-75
2021/06/19 09:26:11;;;;;;;0.40;0.30;;;26.90;99.90;;;;;;4972732;28;20481;-76
2021/06/19 09:29:10;;;;;;;0.40;0.20;;;27.00;99.90;;;;;;4973371;28;20498;-75
2021/06/19 09:31:46;;;;;;;0.43;0.33;;;27.20;99.90;;;;;;4973146;28;20403;-75
2021/06/19 09:34:18;;;;;;;0.40;0.30;;;27.30;99.90;;;;;;4972615;28;20396;-75
2021/06/19 09:37:12;;;;;;;0.40;0.30;;;27.30;99.90;;;;;;4973443;28;20451;-75
2021/06/19 09:39:38;;;;;;;0.40;0.20;;;27.10;99.90;;;;;;4969492;28;20392;-75
2021/06/19 09:42:07;;;;;;;0.40;0.20;;;27.00;99.90;;;;;;4972531;28;20450;-76
2021/06/19 09:44:45;;;;;;;0.40;0.30;;;27.10;99.90;;;;;;4973290;28;20404;-75
2021/06/19 09:47:13;;;;;;;0.43;0.28;;;27.10;99.90;;;;;;4972297;28;20439;-76
2021/06/19 09:49:44;;;;;;;0.40;0.20;;;27.40;99.90;;;;;;4955585;28;20810;-75
2021/06/19 09:52:11;;;;;;;0.40;0.30;;;27.40;99.90;;;;;;4972261;28;20852;-77
2021/06/19 09:54:41;;;;;;;0.40;0.30;;;27.50;99.90;;;;;;4972852;28;20393;-76
2021/06/19 09:57:09;;;;;;;0.40;0.20;;;27.50;99.90;;;;;;4972206;28;20388;-76
2021/06/19 09:59:37;;;;;;;0.40;0.20;;;27.50;99.90;;;;;;4973097;28;20396;-76
2021/06/19 10:02:20;;;;;;;0.40;0.22;;;27.50;99.90;;;;;;4972053;28;20454;-76
2021/06/19 10:04:51;;;;;;;0.40;0.20;;;27.70;99.90;;;;;;4972783;28;20384;-77
2021/06/19 10:07:18;;;;;;;0.40;0.20;;;27.60;99.90;;;;;;4971923;28;20515;-76
2021/06/19 10:09:48;;;;;;;0.40;0.30;;;27.70;99.20;;;;;;4972712;28;20384;-74
2021/06/19 10:12:20;;;;;;;0.40;0.30;;;27.70;98.80;;;;;;4982433;28;20401;-75
2021/06/19 10:14:52;;;;;;;0.40;0.20;;;27.80;98.90;;;;;;4991128;28;20829;-74
2021/06/19 10:17:21;;;;;;;0.40;0.20;;;27.80;98.80;;;;;;5005999;28;20433;-78
2021/06/19 10:19:48;;;;;;;0.40;0.20;;;27.90;99.30;;;;;;4992013;28;20409;-74
2021/06/19 10:22:14;;;;;;;0.40;0.20;;;27.90;99.30;;;;;;4991119;28;20954;-79
2021/06/19 10:24:43;;;;;;;0.40;0.27;;;27.90;99.00;;;;;;4974596;28;20402;-75
2021/06/19 10:27:09;;;;;;;0.40;0.22;;;28.20;99.30;;;;;;4991149;28;20887;-75
2021/06/19 10:29:36;;;;;;;0.40;0.30;;;28.20;99.80;;;;;;4991906;28;20386;-75
2021/06/19 10:32:02;;;;;;;0.40;0.30;;;28.20;99.70;;;;;;4991165;28;20387;-76
2021/06/19 10:34:32;;;;;;;0.40;0.22;;;28.50;99.90;;;;;;4992106;28;20421;-75
2021/06/19 10:37:03;;;;;;;0.40;0.30;;;28.30;99.50;;;;;;4990976;28;20442;-75
2021/06/19 10:39:42;;;;;;;0.40;0.30;;;28.40;97.90;;;;;;4991833;28;20473;-74
2021/06/19 10:42:16;;;;;;;0.40;0.20;;;28.40;98.20;;;;;;4990949;28;20795;-76
2021/06/19 10:44:52;;;;;;;0.40;0.20;;;28.30;98.60;;;;;;4991931;28;20418;-76
2021/06/19 10:47:20;;;;;;;0.50;0.30;;;28.20;98.30;;;;;;4991026;28;20428;-75
2021/06/19 10:49:46;;;;;;;0.40;0.30;;;28.10;98.60;;;;;;4991718;28;20382;-77
2021/06/19 10:52:21;;;;;;;0.40;0.20;;;28.30;97.60;;;;;;4985361;28;20757;-75
2021/06/19 10:55:09;;;;;;;0.40;0.20;;;28.40;97.10;;;;;;4975897;28;20451;-76
2021/06/19 10:57:45;;;;;;;0.40;0.20;;;28.60;97.40;;;;;;4979552;28;20402;-77
2021/06/19 11:00:30;;;;;;;0.40;0.30;;;28.70;95.50;;;;;;4978576;28;20529;-75
2021/06/19 11:02:58;;;;;;;0.40;0.20;;;28.60;96.70;;;;;;4979575;28;20433;-75
2021/06/19 11:05:43;;;;;;;0.40;0.20;;;28.70;95.00;;;;;;4979219;28;20862;-75
2021/06/19 11:08:09;;;;;;;0.40;0.20;;;28.70;95.70;;;;;;4993805;28;20464;-76
2021/06/19 11:10:50;;;;;;;0.40;0.20;;;28.90;94.70;;;;;;4987939;28;20978;-74
2021/06/19 11:13:44;;;;;;;0.40;0.30;;;29.00;95.40;;;;;;4970310;28;20880;-74
2021/06/19 11:16:47;;;;;;;0.40;0.20;;;29.20;95.20;;;;;;4963843;28;20412;-75
2021/06/19 11:19:31;;;;;;;0.50;0.40;;;29.00;94.90;;;;;;4892152;29;20414;-74
2021/06/19 11:22:34;;;;;;;0.40;0.30;;;29.10;97.00;;;;;;4966011;28;20804;-75
2021/06/19 11:25:23;;;;;;;0.40;0.20;;;29.50;96.70;;;;;;4986401;28;20388;-75
2021/06/19 11:28:01;;;;;;;0.40;0.30;;;29.50;97.60;;;;;;4975054;28;20416;-74
2021/06/19 11:30:36;;;;;;;0.55;0.43;;;29.90;97.60;;;;;;4975415;28;20389;-74
2021/06/19 11:33:19;;;;;;;0.40;0.20;;;30.20;96.50;;;;;;4971119;28;20954;-75
2021/06/19 11:36:12;;;;;;;0.40;0.20;;;30.40;97.70;;;;;;4954778;28;20402;-75
2021/06/19 11:38:56;;;;;;;0.40;0.28;;;30.90;94.90;;;;;;4988662;28;20435;-75
2021/06/19 11:41:25;;;;;;;0.40;0.20;;;30.70;95.00;;;;;;4956739;28;21047;-75
2021/06/19 11:43:52;;;;;;;0.40;0.20;;;31.30;94.70;;;;;;4975004;28;20396;-74
2021/06/19 11:46:20;;;;;;;0.40;0.20;;;30.70;92.30;;;;;;4974607;28;20440;-72
2021/06/19 11:48:54;;;;;;;0.40;0.20;;;30.90;91.80;;;;;;4974889;28;20416;-74
2021/06/19 11:51:21;;;;;;;0.40;0.20;;;31.20;92.20;;;;;;4974634;28;20431;-74
2021/06/19 11:53:47;;;;;;;0.40;0.20;;;31.10;90.10;;;;;;4974960;28;20384;-74
2021/06/19 11:56:14;;;;;;;0.50;0.38;;;31.30;91.40;;;;;;4974094;28;20750;-74
2021/06/19 11:58:49;;;;;;;0.40;0.30;;;31.50;91.20;;;;;;4975138;28;20884;-74
2021/06/19 12:01:21;;;;;;;0.40;0.20;;;31.20;91.70;;;;;;4975115;28;20729;-75
2021/06/19 12:03:48;;;;;;;0.40;0.20;;;31.40;91.20;;;;;;4973345;28;20475;-75
2021/06/19 12:06:14;;;;;;;0.40;0.20;;;31.70;90.30;;;;;;4972337;28;20895;-74
2021/06/19 12:08:41;;;;;;;0.40;0.20;;;31.90;91.60;;;;;;4987517;28;20821;-75
2021/06/19 12:11:07;;;;;;;0.40;0.30;;;32.10;91.20;;;;;;4971848;28;20377;-75
2021/06/19 12:13:38;;;;;;;0.40;0.20;;;32.00;90.40;;;;;;4972295;28;20485;-74
2021/06/19 12:16:05;;;;;;;0.40;0.20;;;32.00;87.50;;;;;;4972323;28;20462;-74
2021/06/19 12:18:31;;;;;;;0.40;0.20;;;31.90;88.30;;;;;;4974591;28;20391;-71
2021/06/19 12:21:09;;;;;;;0.40;0.20;;;31.70;86.90;;;;;;4974516;28;20406;-74
2021/06/19 12:23:44;;;;;;;0.40;0.20;;;31.80;87.40;;;;;;4972071;28;20388;-74
2021/06/19 12:26:15;;;;;;;0.40;0.30;;;31.60;90.50;;;;;;4956694;28;20506;-74
2021/06/19 12:28:49;;;;;;;0.40;0.20;;;31.60;92.20;;;;;;4974178;28;20420;-74
2021/06/19 12:31:17;;;;;;;0.40;0.20;;;32.50;88.70;;;;;;4973719;28;20847;-74
2021/06/19 12:33:44;;;;;;;0.40;0.20;;;32.50;90.50;;;;;;4974651;28;20768;-74
2021/06/19 12:36:11;;;;;;;0.40;0.20;;;32.00;84.90;;;;;;4973367;28;20732;-74
2021/06/19 12:38:37;;;;;;;0.40;0.20;;;32.20;87.10;;;;;;4973832;28;20440;-74
2021/06/19 12:41:06;;;;;;;0.40;0.20;;;32.10;87.90;;;;;;4974374;28;20424;-74
2021/06/19 12:43:32;;;;;;;0.40;0.20;;;32.40;88.40;;;;;;4974118;28;20397;-74
2021/06/19 12:45:58;;;;;;;0.40;0.20;;;32.70;89.90;;;;;;4973945;28;20487;-74
2021/06/19 12:48:29;;;;;;;0.40;0.20;;;32.60;88.60;;;;;;4973297;28;20891;-74
2021/06/19 12:50:59;;;;;;;0.40;0.20;;;32.10;87.50;;;;;;4974051;28;20388;-74
2021/06/19 12:53:27;;;;;;;0.40;0.20;;;32.10;85.70;;;;;;4973490;28;20428;-74